Time;durP1;ratioP1;P1;durP2;ratioP2;P2;SDS_P1;SDS_P2;PMS_P1;PMS_P2;Temp;Humidity;BMP_temperature;BMP_pressure;BME280_temperature;BME280_humidity;BME280_pressure;Samples;Min_cycle;Max_cycle;Signal;HPM_P1;HPM_P2
2021/05/11 07:38:00;;;;;;;11.15;7.38;;;;;;;13.62;78.08;98076.06;5130098;27;20353;-85
2021/05/11 07:40:29;;;;;;;10.70;7.25;;;;;;;13.64;77.50;98059.44;5126261;27;20044;-85
2021/05/11 07:42:57;;;;;;;10.77;6.85;;;;;;;13.68;77.51;98071.53;5110179;28;20452;-84
2021/05/11 07:45:30;;;;;;;10.65;6.65;;;;;;;13.79;76.96;98059.84;5112350;28;20135;-83
2021/05/11 07:48:20;;;;;;;8.93;5.78;;;;;;;13.92;76.06;98050.59;5125926;27;20387;-84
2021/05/11 08:01:53;;;;;;;8.88;5.00;;;;;;;14.11;76.01;98047.81;5068289;28;20039;-85
2021/05/11 08:05:04;;;;;;;8.43;5.20;;;;;;;14.60;74.72;98064.84;5083851;27;20128;-84
2021/05/11 08:10:32;;;;;;;7.82;5.32;;;;;;;14.55;74.08;98066.63;5108840;28;20105;-84
2021/05/11 08:15:47;;;;;;;6.15;4.35;;;;;;;14.69;73.28;98079.84;5128090;28;20550;-84
2021/05/11 08:18:19;;;;;;;5.68;4.10;;;;;;;14.54;72.82;98076.72;5129434;27;20097;-83
2021/05/11 08:29:29;;;;;;;6.30;4.70;;;;;;;14.83;71.78;98096.03;5128792;28;20181;-84
2021/05/11 08:31:55;;;;;;;5.15;3.47;;;;;;;14.89;71.99;98089.59;5129275;27;20047;-84
2021/05/11 08:34:22;;;;;;;12.40;3.42;;;;;;;15.00;71.21;98076.97;5128795;27;20043;-82
2021/05/11 08:36:48;;;;;;;5.18;3.60;;;;;;;15.15;70.17;98068.25;5125152;27;20051;-84
2021/05/11 08:39:14;;;;;;;4.47;3.22;;;;;;;14.98;70.60;98051.75;5094525;28;20055;-85
2021/05/11 08:41:42;;;;;;;4.15;3.35;;;;;;;14.79;70.58;98040.94;5094974;28;20059;-84
2021/05/11 08:44:14;;;;;;;8.57;3.63;;;;;;;14.97;71.10;98058.31;5097005;28;20044;-84
2021/05/11 08:46:41;;;;;;;5.03;3.55;;;;;;;15.00;70.83;98061.38;5094740;28;20054;-84
2021/05/11 08:49:11;;;;;;;4.25;3.53;;;;;;;14.84;71.28;98049.28;5094906;28;20072;-85
2021/05/11 08:51:47;;;;;;;4.85;3.50;;;;;;;14.99;71.57;98039.72;5094970;28;20466;-84
2021/05/11 08:54:22;;;;;;;6.45;4.28;;;;;;;15.15;71.57;98044.44;5090949;28;20044;-84
2021/05/11 09:04:33;;;;;;;7.22;4.90;;;;;;;15.16;71.57;98050.75;5101269;28;20055;-85
2021/05/11 09:09:07;;;;;;;5.95;4.35;;;;;;;15.52;70.57;98063.28;5077446;28;20044;-85
2021/05/11 09:15:20;;;;;;;7.30;5.05;;;;;;;15.27;70.89;98090.97;5073673;28;20102;-85
2021/05/11 09:26:08;;;;;;;9.30;4.25;;;;;;;15.03;72.13;98091.00;5106208;28;20122;-84
2021/05/11 09:28:40;;;;;;;6.60;5.05;;;;;;;15.16;71.73;98095.41;5080737;28;20506;-85
2021/05/11 09:31:34;;;;;;;5.97;4.45;;;;;;;14.95;71.31;98090.53;5076595;28;20078;-84
2021/05/11 09:34:19;;;;;;;9.38;4.50;;;;;;;15.05;71.50;98093.50;5114359;28;20138;-84
2021/05/11 09:45:27;;;;;;;9.35;4.35;;;;;;;15.23;71.16;98098.00;5091993;28;20055;-84
2021/05/11 10:42:40;;;;;;;4.40;3.80;;;;;;;16.09;67.89;98047.88;5049481;28;20132;-84
2021/05/11 10:48:16;;;;;;;7.10;3.85;;;;;;;16.28;66.97;98043.81;5077994;28;20294;-84
2021/05/11 10:50:45;;;;;;;4.93;3.60;;;;;;;16.39;66.99;98057.69;5078701;28;20055;-84
2021/05/11 10:53:59;;;;;;;5.55;3.78;;;;;;;16.03;66.73;98037.91;5092380;28;20105;-83
2021/05/11 10:56:59;;;;;;;5.72;3.58;;;;;;;16.20;66.79;98046.97;5040489;28;20479;-84
2021/05/11 11:08:33;;;;;;;5.40;4.43;;;;;;;16.51;66.51;98058.44;5097478;28;20055;-84
2021/05/11 11:14:27;;;;;;;5.03;4.38;;;;;;;16.87;65.86;98067.22;5072197;28;20435;-85
2021/05/11 11:17:17;;;;;;;5.28;4.68;;;;;;;16.64;65.51;98082.78;5072315;28;20415;-84
2021/05/11 11:20:16;;;;;;;8.13;5.40;;;;;;;16.50;67.55;98077.88;5072774;28;20097;-84
2021/05/11 11:26:12;;;;;;;8.20;7.10;;;;;;;16.44;67.24;98077.81;5072141;28;20178;-84
2021/05/11 11:28:39;;;;;;;9.30;6.00;;;;;;;16.25;67.64;98071.72;5075362;28;20110;-85
2021/05/11 11:31:33;;;;;;;9.82;7.15;;;;;;;16.24;67.06;98045.41;5112960;28;20055;-85
2021/05/11 11:35:23;;;;;;;10.10;6.82;;;;;;;16.44;66.29;98050.38;5112974;28;20051;-85
2021/05/11 11:38:38;;;;;;;7.45;6.45;;;;;;;16.45;67.15;98052.06;5014784;28;20054;-85
2021/05/11 11:41:25;;;;;;;6.88;5.97;;;;;;;16.83;66.08;98046.00;5044182;28;20069;-85
2021/05/11 11:47:30;;;;;;;7.68;6.30;;;;;;;16.99;64.13;98056.97;5036108;28;20405;-85
2021/05/11 11:53:39;;;;;;;6.30;5.70;;;;;;;17.02;65.37;98099.56;5032967;28;20061;-85
2021/05/11 11:57:44;;;;;;;7.55;5.57;;;;;;;17.12;64.09;98105.19;5050006;28;20053;-85
2021/05/11 12:03:17;;;;;;;6.57;5.88;;;;;;;16.90;65.77;98087.84;5097711;28;20051;-85
2021/05/11 12:05:47;;;;;;;;;;;;;;;16.78;65.47;98102.47;5112674;28;20130;-86
2021/05/11 12:08:28;;;;;;;6.18;5.57;;;;;;;16.51;66.76;98104.25;5104410;28;19920;-86
2021/05/11 12:11:05;;;;;;;5.20;4.60;;;;;;;16.59;66.73;98099.19;5092062;28;20052;-86
2021/05/11 12:13:43;;;;;;;5.32;4.45;;;;;;;16.62;66.47;98093.19;5094229;28;20105;-86
2021/05/11 12:16:15;;;;;;;5.32;4.43;;;;;;;16.58;66.13;98096.69;5075473;28;20048;-85
2021/05/11 12:19:05;;;;;;;8.13;4.22;;;;;;;16.56;67.05;98107.91;5076671;28;20060;-86
2021/05/11 12:21:38;;;;;;;5.35;4.75;;;;;;;16.35;67.35;98116.84;5077768;28;20044;-87
2021/05/11 12:24:17;;;;;;;8.68;5.82;;;;;;;16.16;68.12;98094.34;5075586;28;20060;-86
2021/05/11 12:26:46;;;;;;;8.90;6.18;;;;;;;16.27;67.25;98097.00;5080031;28;20048;-86
2021/05/11 12:29:15;;;;;;;9.02;4.97;;;;;;;16.58;66.92;98094.75;5075750;28;20502;-87
2021/05/11 12:31:43;;;;;;;7.35;5.22;;;;;;;16.58;67.11;98108.47;5109855;28;20077;-86
2021/05/11 12:34:53;;;;;;;4.90;4.35;;;;;;;16.75;66.51;98083.75;5115754;28;20051;-86
2021/05/11 12:37:22;;;;;;;8.63;5.10;;;;;;;16.60;67.17;98106.31;5104317;27;20380;-87
2021/05/11 12:40:28;;;;;;;3.85;3.45;;;;;;;16.51;66.90;98090.53;5116342;28;20059;-86
2021/05/11 12:42:58;;;;;;;6.47;4.40;;;;;;;16.60;65.72;98084.34;5104432;28;20488;-86
2021/05/11 12:45:24;;;;;;;5.75;3.50;;;;;;;16.38;66.55;98084.31;5095048;28;20419;-87
2021/05/11 12:48:12;;;;;;;7.57;4.45;;;;;;;16.43;66.17;98083.56;5107021;28;20451;-86
2021/05/11 12:50:43;;;;;;;8.25;4.93;;;;;;;16.81;66.01;98096.47;5115482;28;20275;-87
2021/05/11 12:53:34;;;;;;;6.30;4.10;;;;;;;16.80;65.28;98108.56;5115821;28;20054;-85
2021/05/11 12:56:14;;;;;;;3.90;3.25;;;;;;;16.70;65.92;98102.09;5115563;28;20051;-86
2021/05/11 12:59:01;;;;;;;7.45;3.95;;;;;;;16.33;67.59;98117.09;5103027;28;20117;-85
2021/05/11 13:01:46;;;;;;;4.50;3.80;;;;;;;16.33;68.98;98103.41;5084354;28;20539;-85
2021/05/11 13:21:17;;;;;;;10.10;7.93;;;;;;;15.83;71.93;98132.38;5091183;28;20059;-88
2021/05/11 13:26:33;;;;;;;11.55;7.57;;;;;;;15.72;73.15;98108.59;5114923;28;20058;-86
2021/05/11 13:29:05;;;;;;;9.10;5.88;;;;;;;15.65;73.24;98107.88;5115904;28;20517;-85
2021/05/11 13:31:38;;;;;;;6.38;5.68;;;;;;;15.48;72.76;98129.75;5116119;28;20039;-86
2021/05/11 13:34:11;;;;;;;7.78;6.07;;;;;;;15.22;73.68;98135.50;5114292;28;20101;-86
2021/05/11 13:36:40;;;;;;;6.93;5.45;;;;;;;15.30;73.39;98145.25;5113723;28;20082;-87
2021/05/11 13:39:07;;;;;;;6.30;5.03;;;;;;;15.17;73.67;98151.78;5093513;28;20098;-87
2021/05/11 13:41:35;;;;;;;6.93;4.78;;;;;;;15.05;74.12;98164.66;5108555;28;20053;-86
2021/05/11 13:44:02;;;;;;;4.97;4.18;;;;;;;14.97;74.12;98156.81;5113715;28;20051;-86
2021/05/11 13:46:28;;;;;;;5.28;4.03;;;;;;;14.91;74.50;98169.53;5103530;27;20044;-85
2021/05/11 13:48:56;;;;;;;6.38;4.43;;;;;;;14.77;74.69;98168.09;5093952;28;20464;-88
2021/05/11 13:51:22;;;;;;;6.03;4.45;;;;;;;14.90;74.40;98172.53;5093470;28;20418;-87
2021/05/11 13:53:55;;;;;;;5.32;3.40;;;;;;;14.64;74.53;98164.50;5103376;28;20495;-86
2021/05/11 13:56:31;;;;;;;5.38;4.15;;;;;;;14.64;74.24;98155.50;5074367;28;20572;-87
2021/05/11 14:04:29;;;;;;;4.57;3.67;;;;;;;14.81;74.51;98196.66;5089566;28;20516;-85
2021/05/11 14:06:55;;;;;;;4.97;3.72;;;;;;;14.69;74.76;98200.22;5099439;28;20051;-85
2021/05/11 14:09:22;;;;;;;5.30;3.92;;;;;;;14.76;74.78;98205.56;5113656;28;20044;-86
2021/05/11 14:11:48;;;;;;;5.43;3.85;;;;;;;14.87;74.96;98192.97;5096267;28;20048;-85
2021/05/11 14:14:16;;;;;;;5.97;4.32;;;;;;;14.83;75.32;98184.41;5113310;28;20473;-86
2021/05/11 14:16:44;;;;;;;4.47;3.70;;;;;;;14.79;75.64;98183.22;5113539;28;20047;-86
2021/05/11 14:19:11;;;;;;;6.85;3.47;;;;;;;14.69;76.19;98202.09;5111812;28;20434;-86
2021/05/11 14:21:38;;;;;;;4.57;3.40;;;;;;;14.48;75.57;98179.69;5113244;28;20063;-86
2021/05/11 14:24:07;;;;;;;6.03;4.10;;;;;;;14.51;76.83;98198.38;5095644;28;20052;-86
2021/05/11 14:26:34;;;;;;;4.13;3.13;;;;;;;14.44;77.47;98177.66;5090238;28;20407;-86
2021/05/11 14:29:03;;;;;;;4.03;3.20;;;;;;;14.46;77.43;98184.53;5099514;28;20495;-88
2021/05/11 14:31:30;;;;;;;5.50;3.13;;;;;;;14.74;76.60;98198.66;5101889;28;20048;-86
2021/05/11 14:33:57;;;;;;;4.47;3.17;;;;;;;14.43;77.56;98192.41;5093059;28;20613;-86
2021/05/11 14:36:23;;;;;;;8.88;3.13;;;;;;;14.44;77.29;98194.06;5099486;28;20052;-86
2021/05/11 14:38:50;;;;;;;3.92;3.00;;;;;;;14.44;78.45;98189.44;5113277;28;20047;-86
2021/05/11 14:41:19;;;;;;;5.32;3.60;;;;;;;14.43;78.16;98176.81;5109134;28;20036;-84
2021/05/11 14:43:48;;;;;;;3.38;2.78;;;;;;;14.14;77.91;98171.16;5079424;28;20059;-84
2021/05/11 14:46:14;;;;;;;9.10;3.55;;;;;;;14.08;80.14;98168.53;5072970;28;20450;-84
2021/05/11 14:48:42;;;;;;;3.88;2.75;;;;;;;14.02;79.99;98164.00;5112604;28;20391;-84
2021/05/11 14:51:09;;;;;;;5.28;3.45;;;;;;;13.91;81.42;98166.44;5112609;28;20059;-84
2021/05/11 14:53:37;;;;;;;5.68;3.05;;;;;;;14.02;81.07;98170.28;5112228;28;20051;-84
2021/05/11 14:56:04;;;;;;;6.63;2.83;;;;;;;13.95;79.88;98164.88;5112501;28;20051;-85
2021/05/11 14:58:34;;;;;;;3.15;2.53;;;;;;;14.04;80.83;98179.06;5101800;28;20056;-85
2021/05/11 15:01:00;;;;;;;3.53;2.17;;;;;;;13.83;81.66;98172.19;5082799;28;20107;-85
2021/05/11 15:03:26;;;;;;;5.25;2.30;;;;;;;13.70;81.11;98154.09;5083885;28;20055;-82
2021/05/11 15:05:53;;;;;;;8.52;2.28;;;;;;;13.73;82.01;98170.03;5113309;28;20074;-81
2021/05/11 15:08:27;;;;;;;2.28;1.83;;;;;;;13.60;83.25;98167.47;5107390;28;20499;-80
2021/05/11 15:10:58;;;;;;;3.22;1.90;;;;;;;13.54;82.62;98169.22;5080024;28;20080;-82
2021/05/11 15:13:24;;;;;;;3.03;2.28;;;;;;;13.77;83.25;98179.41;5075962;28;20102;-83
2021/05/11 15:15:59;;;;;;;4.70;2.28;;;;;;;13.84;83.43;98189.44;5099064;28;20488;-82
2021/05/11 15:18:25;;;;;;;2.50;2.20;;;;;;;13.83;83.33;98185.84;5073753;28;20052;-82
2021/05/11 15:21:07;;;;;;;3.20;2.50;;;;;;;13.77;83.40;98206.72;5115750;28;20065;-82
2021/05/11 15:23:42;;;;;;;4.57;2.35;;;;;;;13.68;82.99;98194.44;5104329;28;20531;-82
2021/05/11 15:26:11;;;;;;;5.50;2.55;;;;;;;13.60;83.68;98197.50;5093686;28;20044;-82
2021/05/11 15:28:40;;;;;;;7.13;2.92;;;;;;;13.65;84.69;98202.28;5091691;28;20560;-82
2021/05/11 15:31:06;;;;;;;5.60;2.53;;;;;;;13.60;85.40;98222.91;5102070;28;20082;-82
2021/05/11 15:33:35;;;;;;;2.97;2.25;;;;;;;13.48;84.67;98211.06;5094842;28;20052;-81
2021/05/11 15:36:03;;;;;;;5.57;2.30;;;;;;;13.34;85.64;98215.84;5090157;28;20462;-81
2021/05/11 15:38:32;;;;;;;4.38;1.92;;;;;;;13.40;84.74;98214.94;5082692;28;20061;-81
2021/05/11 15:40:59;;;;;;;5.72;3.15;;;;;;;13.48;84.76;98224.72;5071768;28;20050;-81
2021/05/11 15:43:31;;;;;;;7.10;3.25;;;;;;;13.24;85.08;98219.06;5108368;28;20052;-80
2021/05/11 15:46:02;;;;;;;3.60;2.25;;;;;;;13.13;85.76;98229.88;5091433;28;20545;-80
2021/05/11 15:48:28;;;;;;;2.97;2.25;;;;;;;13.15;85.42;98228.59;5084168;28;20485;-80
2021/05/11 15:50:56;;;;;;;7.63;2.63;;;;;;;13.06;86.25;98219.03;5095178;28;20044;-80
2021/05/11 15:53:23;;;;;;;3.80;2.60;;;;;;;13.10;85.55;98226.53;5111581;28;20047;-80
2021/05/11 15:55:49;;;;;;;2.72;2.10;;;;;;;13.08;86.16;98214.16;5115598;28;20059;-80
2021/05/11 15:58:20;;;;;;;3.60;2.40;;;;;;;13.17;85.21;98220.19;5100995;28;20377;-80
2021/05/11 16:00:50;;;;;;;3.50;1.88;;;;;;;12.98;85.58;98232.97;5094344;28;20054;-80
2021/05/11 16:03:16;;;;;;;3.83;1.98;;;;;;;13.00;86.59;98231.66;5105138;28;20138;-80
2021/05/11 16:05:43;;;;;;;6.65;1.95;;;;;;;12.96;86.81;98221.41;5115381;28;20051;-80
2021/05/11 16:08:11;;;;;;;2.67;1.80;;;;;;;13.02;86.73;98236.91;5107348;28;20051;-80
2021/05/11 16:11:03;;;;;;;2.55;1.88;;;;;;;12.87;86.46;98232.63;5094309;28;20062;-80
2021/05/11 16:13:30;;;;;;;2.92;2.00;;;;;;;13.03;87.45;98238.56;5102962;28;20082;-79
2021/05/11 16:16:01;;;;;;;4.30;2.40;;;;;;;13.03;87.02;98242.13;5116892;28;20082;-80
2021/05/11 16:18:30;;;;;;;5.57;2.42;;;;;;;13.06;86.71;98247.13;5106151;28;20051;-81
2021/05/11 16:20:56;;;;;;;5.50;2.47;;;;;;;13.17;87.26;98256.50;5115878;28;20047;-81
2021/05/11 16:23:23;;;;;;;4.90;1.88;;;;;;;13.16;87.30;98271.22;5114392;28;20501;-80
2021/05/11 16:25:50;;;;;;;3.85;1.73;;;;;;;13.06;86.60;98262.69;5115232;28;20047;-80
2021/05/11 16:28:48;;;;;;;5.55;1.48;;;;;;;12.90;86.88;98264.06;5115840;28;20048;-81
2021/05/11 16:31:37;;;;;;;4.07;1.50;;;;;;;12.96;86.37;98276.00;5074335;28;20211;-81
2021/05/11 16:43:56;;;;;;;2.45;1.40;;;;;;;12.66;86.73;98282.94;4991092;28;20078;-83
2021/05/11 16:46:38;;;;;;;3.28;1.23;;;;;;;12.91;86.69;98307.47;5042065;28;20101;-82
2021/05/11 16:49:45;;;;;;;4.88;1.15;;;;;;;12.76;86.65;98282.44;5052527;28;20055;-82
2021/05/11 16:52:47;;;;;;;2.13;1.35;;;;;;;12.82;86.35;98299.81;5059198;28;20045;-82
2021/05/11 16:56:00;;;;;;;1.90;1.20;;;;;;;12.85;86.76;98302.91;5045618;28;20045;-81
2021/05/11 16:58:35;;;;;;;2.42;1.17;;;;;;;12.84;86.54;98312.19;5038044;28;20044;-81
2021/05/11 17:01:01;;;;;;;2.47;1.20;;;;;;;12.81;87.01;98328.13;5074166;28;20048;-80
2021/05/11 17:03:28;;;;;;;4.60;1.13;;;;;;;12.56;87.18;98313.38;5087993;28;20103;-80
2021/05/11 17:05:54;;;;;;;2.17;1.10;;;;;;;12.50;88.11;98307.97;5113152;28;20447;-80
2021/05/11 17:08:22;;;;;;;1.80;1.10;;;;;;;12.62;88.83;98328.03;5109594;28;20279;-80
2021/05/11 17:10:50;;;;;;;4.13;1.30;;;;;;;12.65;87.96;98327.59;5093851;28;20059;-80
2021/05/11 17:13:16;;;;;;;3.65;1.30;;;;;;;12.68;88.58;98331.78;5092604;28;20113;-81
2021/05/11 17:15:58;;;;;;;2.13;1.52;;;;;;;12.60;88.97;98327.44;5113034;28;20448;-81
2021/05/11 17:18:31;;;;;;;3.67;1.67;;;;;;;12.52;88.73;98328.50;5114155;28;20051;-81
2021/05/11 17:20:58;;;;;;;1.33;1.13;;;;;;;12.48;89.16;98342.78;5097226;28;20056;-81
2021/05/11 17:23:38;;;;;;;2.97;1.20;;;;;;;12.52;89.30;98353.03;5092703;28;20557;-80
2021/05/11 17:26:05;;;;;;;1.60;1.10;;;;;;;12.62;88.49;98344.41;5105730;28;20043;-81
2021/05/11 17:28:34;;;;;;;1.58;1.17;;;;;;;12.39;88.12;98332.16;5113729;28;20047;-81
2021/05/11 17:31:03;;;;;;;4.00;1.48;;;;;;;12.37;88.35;98339.72;5104184;28;20071;-80
2021/05/11 17:33:30;;;;;;;1.40;0.82;;;;;;;12.39;88.57;98337.59;5113386;28;20054;-80
2021/05/11 17:36:00;;;;;;;1.75;1.45;;;;;;;12.43;88.14;98335.25;5107717;28;20044;-79
2021/05/11 17:38:37;;;;;;;2.20;1.33;;;;;;;12.49;88.25;98350.75;5093195;28;20507;-80
2021/05/11 17:41:04;;;;;;;1.60;1.00;;;;;;;12.47;87.24;98357.50;5097912;28;20491;-80
2021/05/11 17:43:31;;;;;;;1.73;1.17;;;;;;;12.44;88.34;98357.94;5113338;28;20047;-84
2021/05/11 17:45:58;;;;;;;1.00;0.90;;;;;;;12.33;88.18;98351.25;5109744;28;20491;-81
2021/05/11 17:48:30;;;;;;;2.25;1.00;;;;;;;12.51;87.73;98359.56;5092968;28;20492;-81
2021/05/11 17:50:57;;;;;;;2.15;0.88;;;;;;;12.38;87.33;98365.06;5093766;28;20048;-81
2021/05/11 17:53:26;;;;;;;1.10;1.00;;;;;;;12.27;87.38;98343.94;5094068;28;20591;-81
2021/05/11 17:55:53;;;;;;;1.25;1.10;;;;;;;12.43;87.23;98369.88;5088316;28;20062;-81
2021/05/11 17:58:20;;;;;;;1.92;1.40;;;;;;;12.35;87.75;98358.16;5109938;28;20171;-81
2021/05/11 18:00:47;;;;;;;3.00;1.02;;;;;;;12.23;87.33;98370.78;5114846;28;20479;-81
2021/05/11 18:03:13;;;;;;;2.03;1.45;;;;;;;12.30;87.21;98371.59;5115127;27;20052;-80
2021/05/11 18:05:41;;;;;;;2.22;1.60;;;;;;;12.35;87.77;98379.97;5114265;28;20051;-80
2021/05/11 18:08:08;;;;;;;3.58;0.98;;;;;;;12.36;85.95;98365.28;5114688;28;20082;-81
2021/05/11 18:10:35;;;;;;;1.02;0.90;;;;;;;12.29;86.40;98360.91;5114251;28;20048;-81
2021/05/11 18:13:03;;;;;;;2.35;0.90;;;;;;;12.35;86.30;98360.88;5113279;28;20079;-81
2021/05/11 18:15:30;;;;;;;1.48;1.02;;;;;;;12.35;87.42;98369.06;5093889;28;20411;-81
2021/05/11 18:17:57;;;;;;;1.30;1.20;;;;;;;12.31;86.69;98369.72;5094029;28;20059;-81
2021/05/11 18:20:23;;;;;;;2.35;1.10;;;;;;;12.43;86.96;98381.59;5092819;28;20067;-81
2021/05/11 18:22:53;;;;;;;0.80;0.80;;;;;;;12.33;87.64;98376.63;5094497;28;20050;-81
2021/05/11 18:25:21;;;;;;;2.85;1.05;;;;;;;12.33;87.81;98371.16;5092944;28;20043;-81
2021/05/11 18:27:47;;;;;;;2.92;1.17;;;;;;;12.46;87.76;98397.53;5092274;28;20051;-81
2021/05/11 18:30:17;;;;;;;2.58;1.30;;;;;;;12.35;88.08;98388.13;5093543;28;20051;-81
2021/05/11 18:32:44;;;;;;;1.77;1.02;;;;;;;12.44;87.49;98396.09;5093692;28;20048;-81
2021/05/11 18:35:11;;;;;;;1.20;0.80;;;;;;;12.39;87.55;98394.84;5093205;28;20048;-81
2021/05/11 18:37:40;;;;;;;0.98;0.88;;;;;;;12.41;87.97;98391.06;5092224;28;20468;-81
2021/05/11 18:40:08;;;;;;;2.25;1.10;;;;;;;12.50;87.03;98397.94;5093760;28;20065;-81
2021/05/11 18:42:37;;;;;;;0.70;0.70;;;;;;;12.35;87.25;98387.31;5075086;28;20051;-80
2021/05/11 18:45:06;;;;;;;1.10;0.82;;;;;;;12.35;87.90;98390.84;5093657;28;20048;-80
2021/05/11 18:47:32;;;;;;;3.75;0.98;;;;;;;12.27;88.04;98396.56;5092789;28;20093;-81
2021/05/11 18:49:59;;;;;;;1.30;1.00;;;;;;;12.23;87.95;98387.13;5093202;28;20055;-81
2021/05/11 18:52:29;;;;;;;1.65;1.13;;;;;;;12.34;87.44;98388.34;5093312;28;20044;-81
2021/05/11 18:54:57;;;;;;;0.77;0.77;;;;;;;12.24;87.93;98390.69;5093295;28;20092;-81
2021/05/11 18:57:24;;;;;;;0.88;0.73;;;;;;;12.28;88.09;98398.22;5090697;28;20566;-81
2021/05/11 18:59:51;;;;;;;1.90;0.82;;;;;;;12.14;88.57;98383.81;5091259;28;20552;-81
2021/05/11 19:02:18;;;;;;;1.55;0.82;;;;;;;12.18;88.19;98406.03;5089065;28;20499;-81
2021/05/11 19:04:47;;;;;;;2.53;0.80;;;;;;;12.13;88.35;98400.38;5085039;28;20055;-81
2021/05/11 19:07:15;;;;;;;1.75;1.00;;;;;;;12.15;88.62;98412.72;5093170;28;20434;-81
2021/05/11 19:09:42;;;;;;;3.15;1.10;;;;;;;12.13;88.98;98416.72;5092859;28;20052;-82
2021/05/11 19:12:11;;;;;;;1.58;1.27;;;;;;;12.11;89.38;98416.09;5093065;28;20056;-82
2021/05/11 19:14:39;;;;;;;1.77;1.42;;;;;;;12.11;88.95;98411.47;5093033;28;20114;-81
2021/05/11 19:17:05;;;;;;;4.97;1.40;;;;;;;12.20;89.00;98414.81;5093166;28;20043;-82
2021/05/11 19:19:32;;;;;;;1.95;1.48;;;;;;;12.22;88.63;98423.59;5092186;28;20162;-82
2021/05/11 19:22:16;;;;;;;1.67;1.50;;;;;;;12.14;89.07;98407.50;5092815;28;20733;-80
2021/05/11 19:25:36;;;;;;;2.15;1.50;;;;;;;12.13;89.67;98428.44;5092691;28;20052;-82
2021/05/11 19:32:17;;;;;;;3.47;1.90;;;;;;;12.17;90.00;98432.41;4971587;28;19937;-82
2021/05/11 19:34:44;;;;;;;7.97;2.67;;;;;;;11.93;89.96;98409.41;5040549;28;20137;-81
2021/05/11 19:37:12;;;;;;;2.15;1.65;;;;;;;12.03;90.02;98425.34;5067310;28;20052;-81
2021/05/11 19:39:41;;;;;;;2.30;1.77;;;;;;;12.06;90.25;98426.78;5081856;28;20507;-81
2021/05/11 19:42:07;;;;;;;4.03;2.45;;;;;;;12.03;90.50;98428.88;5093174;28;20060;-81
2021/05/11 19:44:33;;;;;;;4.43;2.50;;;;;;;12.12;90.39;98425.94;5092826;28;20105;-81
2021/05/11 19:47:02;;;;;;;4.20;2.60;;;;;;;12.21;90.25;98439.13;5091032;28;20040;-81
2021/05/11 19:49:29;;;;;;;5.35;2.90;;;;;;;12.16;89.93;98428.03;5085601;28;20399;-81
2021/05/11 19:51:58;;;;;;;2.70;2.50;;;;;;;12.16;90.43;98433.50;5088177;28;20044;-81
2021/05/11 19:54:27;;;;;;;3.47;2.95;;;;;;;12.08;90.91;98427.44;5110157;28;20047;-81
2021/05/11 19:56:56;;;;;;;5.15;3.67;;;;;;;12.15;91.36;98450.03;5107988;28;20044;-81
2021/05/11 19:59:23;;;;;;;5.78;3.58;;;;;;;12.08;91.21;98436.44;5091188;28;20067;-81
2021/05/11 20:01:49;;;;;;;5.63;3.50;;;;;;;12.03;90.92;98436.25;5090738;28;20056;-81
2021/05/11 20:04:15;;;;;;;6.68;3.40;;;;;;;12.17;91.17;98456.94;5089485;28;20411;-81
2021/05/11 20:06:42;;;;;;;8.18;3.72;;;;;;;12.12;90.82;98447.72;5074230;28;20056;-81
2021/05/11 20:09:12;;;;;;;9.02;3.55;;;;;;;12.07;91.14;98445.63;5094315;28;20097;-81
2021/05/11 20:11:38;;;;;;;5.25;3.63;;;;;;;12.06;91.48;98459.47;5112168;28;20108;-81
2021/05/11 20:14:05;;;;;;;5.70;3.53;;;;;;;12.06;92.00;98463.06;5109516;28;20040;-81
2021/05/11 20:16:31;;;;;;;9.88;3.67;;;;;;;11.89;91.71;98439.97;5111380;28;20060;-81
2021/05/11 20:19:06;;;;;;;5.53;3.60;;;;;;;11.96;92.24;98455.28;5109824;28;20048;-81
2021/05/11 20:21:32;;;;;;;5.95;3.70;;;;;;;11.81;92.15;98443.75;5090154;28;20506;-81
2021/05/11 20:23:58;;;;;;;3.50;2.67;;;;;;;11.79;92.27;98467.66;5090746;28;20060;-80
2021/05/11 20:26:35;;;;;;;5.50;2.70;;;;;;;11.76;92.74;98473.53;5104925;28;20052;-81
2021/05/11 20:29:13;;;;;;;5.22;3.15;;;;;;;11.62;92.83;98459.03;5111799;28;20044;-83
2021/05/11 20:31:44;;;;;;;4.28;3.10;;;;;;;11.69;93.27;98465.34;5095514;28;20434;-82
2021/05/11 20:34:16;;;;;;;6.05;3.40;;;;;;;11.75;92.87;98475.38;5092409;28;20075;-81
2021/05/11 20:36:43;;;;;;;2.85;2.50;;;;;;;11.65;92.28;98455.91;5105488;28;20043;-81
2021/05/11 20:39:09;;;;;;;3.58;2.75;;;;;;;11.71;92.36;98465.97;5082637;28;20511;-81
2021/05/11 20:41:38;;;;;;;4.07;2.58;;;;;;;11.75;91.80;98471.84;5086101;28;20052;-81
2021/05/11 20:44:05;;;;;;;2.50;1.80;;;;;;;11.71;91.15;98470.56;5114901;28;20052;-80
2021/05/11 20:46:31;;;;;;;2.58;1.70;;;;;;;11.63;90.84;98477.91;5114064;28;20047;-80
2021/05/11 20:48:57;;;;;;;2.25;1.83;;;;;;;11.65;91.33;98481.25;5096861;28;20570;-81
2021/05/11 20:51:24;;;;;;;1.75;1.63;;;;;;;11.59;91.44;98470.34;5094106;28;20058;-81
2021/05/11 20:53:50;;;;;;;4.35;1.77;;;;;;;11.61;91.08;98460.94;5098941;28;20052;-81
2021/05/11 20:56:16;;;;;;;3.28;1.90;;;;;;;11.61;91.33;98466.38;5113464;28;20509;-80
2021/05/11 20:58:44;;;;;;;2.80;2.22;;;;;;;11.64;91.20;98474.13;5110293;28;20047;-80
2021/05/11 21:01:10;;;;;;;2.60;1.83;;;;;;;11.58;91.14;98471.41;5093474;28;20047;-80
2021/05/11 21:03:36;;;;;;;2.15;1.50;;;;;;;11.61;91.04;98482.72;5093055;28;20044;-80
2021/05/11 21:06:03;;;;;;;2.03;1.50;;;;;;;11.58;91.36;98472.25;5113848;28;20048;-80
2021/05/11 21:08:29;;;;;;;3.28;1.73;;;;;;;11.68;91.25;98491.75;5113921;27;20051;-80
2021/05/11 21:10:55;;;;;;;3.40;2.05;;;;;;;11.66;91.32;98476.66;5090967;28;20098;-80
2021/05/11 21:13:22;;;;;;;3.90;1.80;;;;;;;11.62;91.33;98470.78;5073213;28;20404;-81
2021/05/11 21:15:52;;;;;;;4.63;2.17;;;;;;;11.50;91.03;98470.56;5091815;28;20134;-82
2021/05/11 21:18:19;;;;;;;3.20;2.22;;;;;;;11.63;91.29;98487.97;5114242;28;20189;-83
2021/05/11 21:20:45;;;;;;;5.25;1.88;;;;;;;11.58;90.89;98485.84;5110909;28;20302;-82
2021/05/11 21:23:11;;;;;;;3.38;2.08;;;;;;;11.65;91.31;98496.75;5093926;28;20052;-81
2021/05/11 21:25:38;;;;;;;4.32;1.70;;;;;;;11.47;91.14;98471.00;5093682;28;20114;-81
2021/05/11 21:28:05;;;;;;;3.25;1.58;;;;;;;11.65;91.09;98489.44;5102602;28;20047;-80
2021/05/11 21:30:31;;;;;;;2.70;1.83;;;;;;;11.77;90.72;98489.66;5114466;28;20047;-80
2021/05/11 21:32:58;;;;;;;7.35;2.20;;;;;;;11.69;90.75;98490.66;5102644;28;20051;-80
2021/05/11 21:35:25;;;;;;;3.67;1.73;;;;;;;11.68;90.93;98488.16;5093705;28;20043;-79
2021/05/11 21:37:51;;;;;;;2.05;1.52;;;;;;;11.52;90.29;98470.38;5097654;28;20063;-79
2021/05/11 21:40:18;;;;;;;2.20;1.45;;;;;;;11.57;91.04;98496.97;5113689;28;20440;-79
2021/05/11 21:42:44;;;;;;;3.05;1.88;;;;;;;11.56;91.09;98495.28;5112413;28;20129;-80
2021/05/11 21:45:12;;;;;;;3.08;1.80;;;;;;;11.62;90.87;98498.03;5082122;28;20314;-80
2021/05/11 21:47:39;;;;;;;2.08;1.45;;;;;;;11.49;91.11;98481.66;5072846;28;20480;-80
2021/05/11 21:50:08;;;;;;;3.72;2.10;;;;;;;11.53;91.04;98488.34;5106068;28;20046;-80
2021/05/11 21:52:35;;;;;;;2.38;2.10;;;;;;;11.45;90.82;98497.56;5113679;28;20074;-80
2021/05/11 21:55:01;;;;;;;2.38;1.30;;;;;;;11.50;90.75;98488.75;5100622;28;20048;-80
2021/05/11 21:57:27;;;;;;;2.25;1.60;;;;;;;11.39;90.67;98489.41;5093346;28;20051;-80
2021/05/11 21:59:53;;;;;;;1.38;1.13;;;;;;;11.43;91.05;98487.94;5092923;28;20563;-80
2021/05/11 22:02:20;;;;;;;2.95;1.63;;;;;;;11.51;90.64;98491.28;5090611;28;20419;-80
2021/05/11 22:04:46;;;;;;;3.95;1.42;;;;;;;11.39;90.76;98503.81;5093035;28;20526;-80
2021/05/11 22:07:13;;;;;;;4.07;1.77;;;;;;;11.37;90.99;98503.22;5107387;28;20043;-80
2021/05/11 22:09:40;;;;;;;1.55;1.40;;;;;;;11.29;90.83;98501.53;5072981;28;20048;-79
2021/05/11 22:12:07;;;;;;;2.70;1.88;;;;;;;11.42;91.24;98499.88;5089744;28;20044;-79
2021/05/11 22:14:33;;;;;;;3.45;2.10;;;;;;;11.37;91.00;98500.50;5113061;28;20107;-79
2021/05/11 22:16:59;;;;;;;3.05;1.95;;;;;;;11.45;91.11;98499.44;5106766;28;20109;-79
2021/05/11 22:19:25;;;;;;;5.53;1.70;;;;;;;11.45;90.68;98504.91;5093448;28;20044;-78
2021/05/11 22:21:52;;;;;;;1.58;1.30;;;;;;;11.50;90.44;98499.66;5093348;28;20039;-80
2021/05/11 22:24:19;;;;;;;3.05;1.38;;;;;;;11.43;90.43;98496.09;5089297;28;20471;-79
2021/05/11 22:26:46;;;;;;;1.75;1.30;;;;;;;11.43;90.85;98502.38;5075847;28;20550;-79
2021/05/11 22:29:12;;;;;;;3.08;1.17;;;;;;;11.39;90.95;98506.56;5093170;28;20492;-80
2021/05/11 22:31:38;;;;;;;5.18;1.30;;;;;;;11.35;90.18;98510.75;5101372;28;20052;-80